sensor_id;sensor_type;location;lat;lon;timestamp;temperature;humidity
36384;DHT22;22418;51.210;6.976;2023-07-29T00:01:47;19.50;99.90
36384;DHT22;22418;51.210;6.976;2023-07-29T00:04:19;19.50;99.90
36384;DHT22;22418;51.210;6.976;2023-07-29T00:06:50;19.50;99.90
36384;DHT22;22418;51.210;6.976;2023-07-29T00:09:21;19.50;99.90
36384;DHT22;22418;51.210;6.976;2023-07-29T00:11:51;19.50;99.90
36384;DHT22;22418;51.210;6.976;2023-07-29T00:14:22;19.50;99.90
36384;DHT22;22418;51.210;6.976;2023-07-29T00:16:52;19.50;99.90
36384;DHT22;22418;51.210;6.976;2023-07-29T00:19:23;19.50;99.90
36384;DHT22;22418;51.210;6.976;2023-07-29T00:21:53;19.40;99.90
36384;DHT22;22418;51.210;6.976;2023-07-29T00:24:24;19.50;99.90
36384;DHT22;22418;51.210;6.976;2023-07-29T00:26:54;19.50;99.90
36384;DHT22;22418;51.210;6.976;2023-07-29T00:29:25;19.50;99.90
36384;DHT22;22418;51.210;6.976;2023-07-29T00:31:55;19.50;99.90
36384;DHT22;22418;51.210;6.976;2023-07-29T00:34:26;19.40;99.90
36384;DHT22;22418;51.210;6.976;2023-07-29T00:36:56;19.40;99.90
36384;DHT22;22418;51.210;6.976;2023-07-29T00:39:27;19.30;99.90
36384;DHT22;22418;51.210;6.976;2023-07-29T00:41:58;19.30;99.90
36384;DHT22;22418;51.210;6.976;2023-07-29T00:44:29;19.30;99.90
36384;DHT22;22418;51.210;6.976;2023-07-29T00:47:00;19.30;99.90
36384;DHT22;22418;51.210;6.976;2023-07-29T00:49:31;19.30;99.90
36384;DHT22;22418;51.210;6.976;2023-07-29T00:52:02;19.20;99.90
36384;DHT22;22418;51.210;6.976;2023-07-29T00:54:33;19.30;99.90
36384;DHT22;22418;51.210;6.976;2023-07-29T00:57:03;19.30;99.90
36384;DHT22;22418;51.210;6.976;2023-07-29T00:59:34;19.30;99.90
36384;DHT22;22418;51.210;6.976;2023-07-29T01:02:05;19.30;99.90
36384;DHT22;22418;51.210;6.976;2023-07-29T01:04:35;19.30;99.90
36384;DHT22;22418;51.210;6.976;2023-07-29T01:12:36;19.40;99.90
36384;DHT22;22418;51.210;6.976;2023-07-29T01:15:18;19.40;99.90
36384;DHT22;22418;51.210;6.976;2023-07-29T01:17:52;19.40;99.90
36384;DHT22;22418;51.210;6.976;2023-07-29T01:20:23;19.40;99.90
36384;DHT22;22418;51.210;6.976;2023-07-29T01:22:54;19.40;99.90
36384;DHT22;22418;51.210;6.976;2023-07-29T01:25:25;19.30;99.90
36384;DHT22;22418;51.210;6.976;2023-07-29T01:27:55;19.30;99.90
36384;DHT22;22418;51.210;6.976;2023-07-29T01:30:29;19.30;99.90
36384;DHT22;22418;51.210;6.976;2023-07-29T01:33:03;19.30;99.90
36384;DHT22;22418;51.210;6.976;2023-07-29T01:35:50;19.30;99.90
36384;DHT22;22418;51.210;6.976;2023-07-29T01:38:29;19.30;99.90
36384;DHT22;22418;51.210;6.976;2023-07-29T01:41:02;19.40;99.90
36384;DHT22;22418;51.210;6.976;2023-07-29T01:43:33;19.40;99.90
36384;DHT22;22418;51.210;6.976;2023-07-29T01:46:04;19.40;99.90
36384;DHT22;22418;51.210;6.976;2023-07-29T01:48:34;19.40;99.90
36384;DHT22;22418;51.210;6.976;2023-07-29T01:51:05;19.40;99.90
36384;DHT22;22418;51.210;6.976;2023-07-29T01:53:36;19.30;99.90
36384;DHT22;22418;51.210;6.976;2023-07-29T01:56:06;19.30;99.90
36384;DHT22;22418;51.210;6.976;2023-07-29T01:58:37;19.40;99.90
36384;DHT22;22418;51.210;6.976;2023-07-29T02:01:08;19.40;99.90
36384;DHT22;22418;51.210;6.976;2023-07-29T02:03:38;19.40;99.90
36384;DHT22;22418;51.210;6.976;2023-07-29T02:06:08;19.40;99.90
36384;DHT22;22418;51.210;6.976;2023-07-29T02:08:39;19.30;99.90
36384;DHT22;22418;51.210;6.976;2023-07-29T02:11:11;19.30;99.90
36384;DHT22;22418;51.210;6.976;2023-07-29T02:13:41;19.20;99.90
36384;DHT22;22418;51.210;6.976;2023-07-29T02:16:12;19.20;99.90
36384;DHT22;22418;51.210;6.976;2023-07-29T02:18:42;19.20;99.90
36384;DHT22;22418;51.210;6.976;2023-07-29T02:21:13;19.20;99.90
36384;DHT22;22418;51.210;6.976;2023-07-29T02:23:43;19.20;99.90
36384;DHT22;22418;51.210;6.976;2023-07-29T02:26:14;19.20;99.90
36384;DHT22;22418;51.210;6.976;2023-07-29T02:28:44;19.30;99.90
36384;DHT22;22418;51.210;6.976;2023-07-29T02:31:16;19.30;99.90
36384;DHT22;22418;51.210;6.976;2023-07-29T02:33:47;19.30;99.90
36384;DHT22;22418;51.210;6.976;2023-07-29T02:36:17;19.30;99.90
36384;DHT22;22418;51.210;6.976;2023-07-29T02:38:48;19.30;99.90
36384;DHT22;22418;51.210;6.976;2023-07-29T02:41:18;19.20;99.90
36384;DHT22;22418;51.210;6.976;2023-07-29T02:43:49;19.20;99.90
36384;DHT22;22418;51.210;6.976;2023-07-29T02:46:19;19.20;99.90
36384;DHT22;22418;51.210;6.976;2023-07-29T02:48:50;19.20;99.90
36384;DHT22;22418;51.210;6.976;2023-07-29T02:51:20;19.20;99.90
36384;DHT22;22418;51.210;6.976;2023-07-29T02:53:51;19.20;99.90
36384;DHT22;22418;51.210;6.976;2023-07-29T02:56:21;19.20;99.90
36384;DHT22;22418;51.210;6.976;2023-07-29T02:58:52;19.20;99.90
36384;DHT22;22418;51.210;6.976;2023-07-29T03:01:22;19.20;99.90
36384;DHT22;22418;51.210;6.976;2023-07-29T03:03:53;19.20;99.90
36384;DHT22;22418;51.210;6.976;2023-07-29T03:06:23;19.20;99.90
36384;DHT22;22418;51.210;6.976;2023-07-29T03:08:54;19.30;99.90
36384;DHT22;22418;51.210;6.976;2023-07-29T03:11:24;19.30;99.90
36384;DHT22;22418;51.210;6.976;2023-07-29T03:13:55;19.30;99.90
36384;DHT22;22418;51.210;6.976;2023-07-29T03:16:25;19.30;99.90
36384;DHT22;22418;51.210;6.976;2023-07-29T03:18:56;19.30;99.90
36384;DHT22;22418;51.210;6.976;2023-07-29T03:21:27;19.30;99.90
36384;DHT22;22418;51.210;6.976;2023-07-29T03:23:58;19.30;99.90
36384;DHT22;22418;51.210;6.976;2023-07-29T03:26:28;19.30;99.90
36384;DHT22;22418;51.210;6.976;2023-07-29T03:28:59;19.30;99.90
36384;DHT22;22418;51.210;6.976;2023-07-29T03:31:29;19.30;99.90
36384;DHT22;22418;51.210;6.976;2023-07-29T03:34:00;19.30;99.90
36384;DHT22;22418;51.210;6.976;2023-07-29T03:36:30;19.30;99.90
36384;DHT22;22418;51.210;6.976;2023-07-29T03:39:01;19.30;99.90
36384;DHT22;22418;51.210;6.976;2023-07-29T03:41:33;19.30;99.90
36384;DHT22;22418;51.210;6.976;2023-07-29T03:44:04;19.30;99.90
36384;DHT22;22418;51.210;6.976;2023-07-29T03:46:34;19.30;99.90
36384;DHT22;22418;51.210;6.976;2023-07-29T03:49:05;19.30;99.90
36384;DHT22;22418;51.210;6.976;2023-07-29T03:51:35;19.30;99.90
36384;DHT22;22418;51.210;6.976;2023-07-29T03:54:06;19.30;99.90
36384;DHT22;22418;51.210;6.976;2023-07-29T03:56:36;19.30;99.90
36384;DHT22;22418;51.210;6.976;2023-07-29T03:59:07;19.20;99.90
36384;DHT22;22418;51.210;6.976;2023-07-29T04:01:37;19.20;99.90
36384;DHT22;22418;51.210;6.976;2023-07-29T04:04:08;19.20;99.90
36384;DHT22;22418;51.210;6.976;2023-07-29T04:06:38;19.20;99.90
36384;DHT22;22418;51.210;6.976;2023-07-29T04:09:09;19.20;99.90
36384;DHT22;22418;51.210;6.976;2023-07-29T04:11:39;19.20;99.90
36384;DHT22;22418;51.210;6.976;2023-07-29T04:14:10;19.30;99.90
36384;DHT22;22418;51.210;6.976;2023-07-29T04:16:40;19.30;99.90
36384;DHT22;22418;51.210;6.976;2023-07-29T04:19:10;19.30;99.90
36384;DHT22;22418;51.210;6.976;2023-07-29T04:21:41;19.30;99.90
36384;DHT22;22418;51.210;6.976;2023-07-29T04:24:11;19.30;99.90
36384;DHT22;22418;51.210;6.976;2023-07-29T04:26:42;19.30;99.90
36384;DHT22;22418;51.210;6.976;2023-07-29T04:29:12;19.30;99.90
36384;DHT22;22418;51.210;6.976;2023-07-29T04:31:43;19.40;99.90
36384;DHT22;22418;51.210;6.976;2023-07-29T04:34:13;19.30;99.90
36384;DHT22;22418;51.210;6.976;2023-07-29T04:36:44;19.40;99.90
36384;DHT22;22418;51.210;6.976;2023-07-29T04:39:14;19.40;99.90
36384;DHT22;22418;51.210;6.976;2023-07-29T04:41:45;19.40;99.90
36384;DHT22;22418;51.210;6.976;2023-07-29T04:44:15;19.40;99.90
36384;DHT22;22418;51.210;6.976;2023-07-29T04:46:46;19.40;99.90
36384;DHT22;22418;51.210;6.976;2023-07-29T04:49:16;19.40;99.90
36384;DHT22;22418;51.210;6.976;2023-07-29T04:51:47;19.40;99.90
36384;DHT22;22418;51.210;6.976;2023-07-29T04:54:17;19.40;99.90
36384;DHT22;22418;51.210;6.976;2023-07-29T04:56:50;19.40;99.90
36384;DHT22;22418;51.210;6.976;2023-07-29T04:59:21;19.40;99.90
36384;DHT22;22418;51.210;6.976;2023-07-29T05:01:52;19.40;99.90
36384;DHT22;22418;51.210;6.976;2023-07-29T05:04:23;19.50;99.90
36384;DHT22;22418;51.210;6.976;2023-07-29T05:06:53;19.40;99.90
36384;DHT22;22418;51.210;6.976;2023-07-29T05:09:24;19.50;99.90
36384;DHT22;22418;51.210;6.976;2023-07-29T05:11:54;19.50;99.90
36384;DHT22;22418;51.210;6.976;2023-07-29T05:14:25;19.60;99.90
36384;DHT22;22418;51.210;6.976;2023-07-29T05:16:55;19.60;99.90
36384;DHT22;22418;51.210;6.976;2023-07-29T05:19:26;19.60;99.90
36384;DHT22;22418;51.210;6.976;2023-07-29T05:21:56;19.60;99.90
36384;DHT22;22418;51.210;6.976;2023-07-29T05:24:27;19.70;99.90
36384;DHT22;22418;51.210;6.976;2023-07-29T05:27:01;19.70;99.90
36384;DHT22;22418;51.210;6.976;2023-07-29T05:29:31;19.70;99.90
36384;DHT22;22418;51.210;6.976;2023-07-29T05:32:01;19.70;99.90
36384;DHT22;22418;51.210;6.976;2023-07-29T05:34:32;19.60;99.90
36384;DHT22;22418;51.210;6.976;2023-07-29T05:37:03;19.70;99.90
36384;DHT22;22418;51.210;6.976;2023-07-29T05:39:33;19.70;99.90
36384;DHT22;22418;51.210;6.976;2023-07-29T05:42:04;19.70;99.90
36384;DHT22;22418;51.210;6.976;2023-07-29T05:44:34;19.70;99.90
36384;DHT22;22418;51.210;6.976;2023-07-29T05:47:05;19.70;99.90
36384;DHT22;22418;51.210;6.976;2023-07-29T05:49:35;19.70;99.90
36384;DHT22;22418;51.210;6.976;2023-07-29T05:52:06;19.70;99.90
36384;DHT22;22418;51.210;6.976;2023-07-29T05:54:36;19.70;99.90
36384;DHT22;22418;51.210;6.976;2023-07-29T05:57:07;19.70;99.90
36384;DHT22;22418;51.210;6.976;2023-07-29T05:59:38;19.70;99.90
36384;DHT22;22418;51.210;6.976;2023-07-29T06:02:08;19.70;99.90
36384;DHT22;22418;51.210;6.976;2023-07-29T06:04:39;19.80;99.90
36384;DHT22;22418;51.210;6.976;2023-07-29T06:07:09;19.70;99.90
36384;DHT22;22418;51.210;6.976;2023-07-29T06:09:40;19.80;99.90
36384;DHT22;22418;51.210;6.976;2023-07-29T06:12:10;19.80;99.90
36384;DHT22;22418;51.210;6.976;2023-07-29T06:14:41;19.80;99.90
36384;DHT22;22418;51.210;6.976;2023-07-29T06:17:11;19.90;99.90
36384;DHT22;22418;51.210;6.976;2023-07-29T06:19:42;20.00;99.90
36384;DHT22;22418;51.210;6.976;2023-07-29T06:22:12;20.00;99.90
36384;DHT22;22418;51.210;6.976;2023-07-29T06:24:42;20.00;99.90
36384;DHT22;22418;51.210;6.976;2023-07-29T06:27:13;20.00;99.90
36384;DHT22;22418;51.210;6.976;2023-07-29T06:29:43;20.00;99.90
36384;DHT22;22418;51.210;6.976;2023-07-29T06:32:14;20.10;99.90
36384;DHT22;22418;51.210;6.976;2023-07-29T06:34:44;20.20;99.90
36384;DHT22;22418;51.210;6.976;2023-07-29T06:37:15;20.60;99.90
36384;DHT22;22418;51.210;6.976;2023-07-29T06:39:45;20.90;99.90
36384;DHT22;22418;51.210;6.976;2023-07-29T06:42:16;20.90;99.90
36384;DHT22;22418;51.210;6.976;2023-07-29T06:44:46;20.80;99.90
36384;DHT22;22418;51.210;6.976;2023-07-29T06:47:17;20.60;99.90
36384;DHT22;22418;51.210;6.976;2023-07-29T06:49:47;20.60;99.90
36384;DHT22;22418;51.210;6.976;2023-07-29T06:52:18;20.60;99.90
36384;DHT22;22418;51.210;6.976;2023-07-29T06:54:48;20.60;99.90
36384;DHT22;22418;51.210;6.976;2023-07-29T06:57:19;20.50;99.90
36384;DHT22;22418;51.210;6.976;2023-07-29T06:59:49;20.60;99.90
36384;DHT22;22418;51.210;6.976;2023-07-29T07:02:20;20.60;99.90
36384;DHT22;22418;51.210;6.976;2023-07-29T07:04:50;20.50;99.90
36384;DHT22;22418;51.210;6.976;2023-07-29T07:07:20;20.50;99.90
36384;DHT22;22418;51.210;6.976;2023-07-29T07:09:51;20.60;99.90
36384;DHT22;22418;51.210;6.976;2023-07-29T07:12:21;20.60;99.90
36384;DHT22;22418;51.210;6.976;2023-07-29T07:14:54;20.60;99.90
36384;DHT22;22418;51.210;6.976;2023-07-29T07:17:25;20.70;99.90
36384;DHT22;22418;51.210;6.976;2023-07-29T07:19:55;20.90;99.90
36384;DHT22;22418;51.210;6.976;2023-07-29T07:22:26;20.90;99.90
36384;DHT22;22418;51.210;6.976;2023-07-29T07:24:56;20.90;99.90
36384;DHT22;22418;51.210;6.976;2023-07-29T07:27:26;21.00;99.90
36384;DHT22;22418;51.210;6.976;2023-07-29T07:29:57;21.30;99.90
36384;DHT22;22418;51.210;6.976;2023-07-29T07:32:27;21.60;99.90
36384;DHT22;22418;51.210;6.976;2023-07-29T07:34:58;21.90;99.90
36384;DHT22;22418;51.210;6.976;2023-07-29T07:37:28;22.20;99.90
36384;DHT22;22418;51.210;6.976;2023-07-29T07:39:59;22.40;99.90
36384;DHT22;22418;51.210;6.976;2023-07-29T07:42:29;22.50;99.90
36384;DHT22;22418;51.210;6.976;2023-07-29T07:45:00;22.60;99.90
36384;DHT22;22418;51.210;6.976;2023-07-29T07:47:30;23.00;99.90
36384;DHT22;22418;51.210;6.976;2023-07-29T07:50:01;23.50;99.90
36384;DHT22;22418;51.210;6.976;2023-07-29T07:52:31;24.00;99.90
36384;DHT22;22418;51.210;6.976;2023-07-29T07:55:02;24.50;99.90
36384;DHT22;22418;51.210;6.976;2023-07-29T07:57:32;24.90;99.90
36384;DHT22;22418;51.210;6.976;2023-07-29T08:00:03;25.00;99.90
36384;DHT22;22418;51.210;6.976;2023-07-29T08:02:34;25.00;99.90
36384;DHT22;22418;51.210;6.976;2023-07-29T08:05:05;25.00;99.90
36384;DHT22;22418;51.210;6.976;2023-07-29T08:07:35;24.70;99.90
36384;DHT22;22418;51.210;6.976;2023-07-29T08:10:06;24.50;99.90
36384;DHT22;22418;51.210;6.976;2023-07-29T08:12:37;24.30;99.90
36384;DHT22;22418;51.210;6.976;2023-07-29T08:15:07;24.10;99.90
36384;DHT22;22418;51.210;6.976;2023-07-29T08:17:38;24.30;99.90
36384;DHT22;22418;51.210;6.976;2023-07-29T08:20:08;24.70;99.90
36384;DHT22;22418;51.210;6.976;2023-07-29T08:22:39;25.20;99.90
36384;DHT22;22418;51.210;6.976;2023-07-29T08:25:10;25.40;99.90
36384;DHT22;22418;51.210;6.976;2023-07-29T08:27:40;25.70;99.90
36384;DHT22;22418;51.210;6.976;2023-07-29T08:30:11;25.80;99.90
36384;DHT22;22418;51.210;6.976;2023-07-29T08:32:42;25.90;99.90
36384;DHT22;22418;51.210;6.976;2023-07-29T08:35:12;26.30;99.90
36384;DHT22;22418;51.210;6.976;2023-07-29T08:37:42;26.50;99.90
36384;DHT22;22418;51.210;6.976;2023-07-29T08:40:13;26.50;99.90
36384;DHT22;22418;51.210;6.976;2023-07-29T08:42:43;26.50;99.90
36384;DHT22;22418;51.210;6.976;2023-07-29T08:45:15;26.60;99.90
36384;DHT22;22418;51.210;6.976;2023-07-29T08:47:46;26.60;99.90
36384;DHT22;22418;51.210;6.976;2023-07-29T08:50:20;26.40;99.90
36384;DHT22;22418;51.210;6.976;2023-07-29T08:52:51;26.40;99.90
36384;DHT22;22418;51.210;6.976;2023-07-29T08:55:22;26.50;99.90
36384;DHT22;22418;51.210;6.976;2023-07-29T08:57:53;26.50;99.90
36384;DHT22;22418;51.210;6.976;2023-07-29T09:00:24;26.50;99.90
36384;DHT22;22418;51.210;6.976;2023-07-29T09:02:55;26.50;99.90
36384;DHT22;22418;51.210;6.976;2023-07-29T09:05:28;26.50;99.90
36384;DHT22;22418;51.210;6.976;2023-07-29T09:07:58;26.20;99.90
36384;DHT22;22418;51.210;6.976;2023-07-29T09:10:29;26.00;99.90
36384;DHT22;22418;51.210;6.976;2023-07-29T09:13:00;25.70;99.90
36384;DHT22;22418;51.210;6.976;2023-07-29T09:15:34;25.40;99.90
36384;DHT22;22418;51.210;6.976;2023-07-29T09:18:08;25.20;99.90
36384;DHT22;22418;51.210;6.976;2023-07-29T09:20:39;25.00;99.90
36384;DHT22;22418;51.210;6.976;2023-07-29T09:23:10;24.90;99.90
36384;DHT22;22418;51.210;6.976;2023-07-29T09:25:40;24.70;99.90
36384;DHT22;22418;51.210;6.976;2023-07-29T09:28:12;24.40;99.90
36384;DHT22;22418;51.210;6.976;2023-07-29T09:30:45;24.20;99.90
36384;DHT22;22418;51.210;6.976;2023-07-29T09:33:15;24.00;99.90
36384;DHT22;22418;51.210;6.976;2023-07-29T09:35:48;23.80;99.90
36384;DHT22;22418;51.210;6.976;2023-07-29T09:38:25;23.70;99.90
36384;DHT22;22418;51.210;6.976;2023-07-29T09:40:56;23.90;99.90
36384;DHT22;22418;51.210;6.976;2023-07-29T09:43:31;24.10;99.90
36384;DHT22;22418;51.210;6.976;2023-07-29T09:46:02;24.40;99.90
36384;DHT22;22418;51.210;6.976;2023-07-29T09:48:33;24.50;99.90
36384;DHT22;22418;51.210;6.976;2023-07-29T09:51:11;24.30;99.90
36384;DHT22;22418;51.210;6.976;2023-07-29T09:53:42;24.20;99.90
36384;DHT22;22418;51.210;6.976;2023-07-29T09:56:13;24.10;99.90
36384;DHT22;22418;51.210;6.976;2023-07-29T09:58:44;23.90;99.90
36384;DHT22;22418;51.210;6.976;2023-07-29T10:01:15;23.70;99.90
36384;DHT22;22418;51.210;6.976;2023-07-29T10:03:46;23.50;99.90
36384;DHT22;22418;51.210;6.976;2023-07-29T10:06:17;23.20;99.90
36384;DHT22;22418;51.210;6.976;2023-07-29T10:08:48;23.20;99.90
36384;DHT22;22418;51.210;6.976;2023-07-29T10:11:19;23.10;99.90
36384;DHT22;22418;51.210;6.976;2023-07-29T10:13:51;23.20;99.90
36384;DHT22;22418;51.210;6.976;2023-07-29T10:16:21;23.40;99.90
36384;DHT22;22418;51.210;6.976;2023-07-29T10:18:53;23.70;99.90
36384;DHT22;22418;51.210;6.976;2023-07-29T10:21:24;23.90;99.90
36384;DHT22;22418;51.210;6.976;2023-07-29T10:23:54;24.10;99.90
36384;DHT22;22418;51.210;6.976;2023-07-29T10:26:26;24.10;99.90
36384;DHT22;22418;51.210;6.976;2023-07-29T10:28:59;24.10;99.90
36384;DHT22;22418;51.210;6.976;2023-07-29T10:31:35;23.90;99.90
36384;DHT22;22418;51.210;6.976;2023-07-29T10:34:05;23.90;99.90
36384;DHT22;22418;51.210;6.976;2023-07-29T10:36:36;24.00;99.90
36384;DHT22;22418;51.210;6.976;2023-07-29T10:39:07;24.10;99.90
36384;DHT22;22418;51.210;6.976;2023-07-29T10:41:57;24.10;99.90
36384;DHT22;22418;51.210;6.976;2023-07-29T10:47:14;24.00;99.90
36384;DHT22;22418;51.210;6.976;2023-07-29T10:49:54;23.90;99.90
36384;DHT22;22418;51.210;6.976;2023-07-29T10:55:06;23.60;99.90
36384;DHT22;22418;51.210;6.976;2023-07-29T10:58:04;23.50;99.90
36384;DHT22;22418;51.210;6.976;2023-07-29T11:00:35;23.40;99.90
36384;DHT22;22418;51.210;6.976;2023-07-29T11:03:06;23.10;99.90
36384;DHT22;22418;51.210;6.976;2023-07-29T11:08:31;23.20;99.90
36384;DHT22;22418;51.210;6.976;2023-07-29T11:11:05;23.50;99.90
36384;DHT22;22418;51.210;6.976;2023-07-29T11:13:36;23.80;99.90
36384;DHT22;22418;51.210;6.976;2023-07-29T11:16:09;23.80;99.90
36384;DHT22;22418;51.210;6.976;2023-07-29T11:18:40;23.80;99.90
36384;DHT22;22418;51.210;6.976;2023-07-29T11:21:12;23.70;99.90
36384;DHT22;22418;51.210;6.976;2023-07-29T11:23:44;23.80;99.90
36384;DHT22;22418;51.210;6.976;2023-07-29T11:26:15;23.80;99.90
36384;DHT22;22418;51.210;6.976;2023-07-29T11:28:45;23.80;99.90
36384;DHT22;22418;51.210;6.976;2023-07-29T11:31:16;23.70;99.90
36384;DHT22;22418;51.210;6.976;2023-07-29T11:33:47;23.60;99.90
36384;DHT22;22418;51.210;6.976;2023-07-29T11:36:18;23.60;99.90
36384;DHT22;22418;51.210;6.976;2023-07-29T11:38:49;23.60;99.90
36384;DHT22;22418;51.210;6.976;2023-07-29T11:41:20;23.40;99.90
36384;DHT22;22418;51.210;6.976;2023-07-29T11:43:52;23.10;99.90
36384;DHT22;22418;51.210;6.976;2023-07-29T11:46:22;23.00;99.90
36384;DHT22;22418;51.210;6.976;2023-07-29T11:48:56;23.20;99.90
36384;DHT22;22418;51.210;6.976;2023-07-29T11:51:26;23.20;99.90
36384;DHT22;22418;51.210;6.976;2023-07-29T11:53:57;23.40;99.90
36384;DHT22;22418;51.210;6.976;2023-07-29T11:56:27;23.40;99.90
36384;DHT22;22418;51.210;6.976;2023-07-29T11:59:01;23.50;99.90
36384;DHT22;22418;51.210;6.976;2023-07-29T12:01:33;23.50;99.90
36384;DHT22;22418;51.210;6.976;2023-07-29T12:04:03;23.60;99.90
36384;DHT22;22418;51.210;6.976;2023-07-29T12:06:34;23.80;99.90
36384;DHT22;22418;51.210;6.976;2023-07-29T12:09:04;23.90;99.90
36384;DHT22;22418;51.210;6.976;2023-07-29T12:11:35;23.70;99.90
36384;DHT22;22418;51.210;6.976;2023-07-29T12:14:09;23.80;99.90
36384;DHT22;22418;51.210;6.976;2023-07-29T12:16:40;23.80;99.90
36384;DHT22;22418;51.210;6.976;2023-07-29T12:19:14;23.90;99.90
36384;DHT22;22418;51.210;6.976;2023-07-29T12:21:45;23.90;99.90
36384;DHT22;22418;51.210;6.976;2023-07-29T12:24:15;23.80;99.90
36384;DHT22;22418;51.210;6.976;2023-07-29T12:26:46;23.80;99.90
36384;DHT22;22418;51.210;6.976;2023-07-29T12:29:18;23.80;99.90
36384;DHT22;22418;51.210;6.976;2023-07-29T12:31:56;23.60;99.90
36384;DHT22;22418;51.210;6.976;2023-07-29T12:34:27;23.60;99.90
36384;DHT22;22418;51.210;6.976;2023-07-29T12:36:58;23.60;99.90
36384;DHT22;22418;51.210;6.976;2023-07-29T12:39:30;23.60;99.90
36384;DHT22;22418;51.210;6.976;2023-07-29T12:42:01;23.50;99.90
36384;DHT22;22418;51.210;6.976;2023-07-29T12:44:32;23.60;99.90
36384;DHT22;22418;51.210;6.976;2023-07-29T12:47:04;23.50;99.90
36384;DHT22;22418;51.210;6.976;2023-07-29T12:49:35;23.40;99.90
36384;DHT22;22418;51.210;6.976;2023-07-29T12:52:06;23.30;99.90
36384;DHT22;22418;51.210;6.976;2023-07-29T12:54:36;23.40;99.90
36384;DHT22;22418;51.210;6.976;2023-07-29T12:57:06;23.40;99.90
36384;DHT22;22418;51.210;6.976;2023-07-29T12:59:37;23.40;99.90
36384;DHT22;22418;51.210;6.976;2023-07-29T13:02:07;23.40;99.90
36384;DHT22;22418;51.210;6.976;2023-07-29T13:04:39;23.50;99.90
36384;DHT22;22418;51.210;6.976;2023-07-29T13:07:09;23.60;99.90
36384;DHT22;22418;51.210;6.976;2023-07-29T13:09:40;23.70;99.90
36384;DHT22;22418;51.210;6.976;2023-07-29T13:12:10;23.70;99.90
36384;DHT22;22418;51.210;6.976;2023-07-29T13:14:40;23.80;99.90
36384;DHT22;22418;51.210;6.976;2023-07-29T13:17:11;23.90;99.90
36384;DHT22;22418;51.210;6.976;2023-07-29T13:19:41;24.00;99.90
36384;DHT22;22418;51.210;6.976;2023-07-29T13:22:12;24.00;99.90
36384;DHT22;22418;51.210;6.976;2023-07-29T13:24:42;24.10;99.90
36384;DHT22;22418;51.210;6.976;2023-07-29T13:27:13;24.10;99.90
36384;DHT22;22418;51.210;6.976;2023-07-29T13:29:43;24.00;99.90
36384;DHT22;22418;51.210;6.976;2023-07-29T13:32:14;23.90;99.90
36384;DHT22;22418;51.210;6.976;2023-07-29T13:34:44;23.80;99.90
36384;DHT22;22418;51.210;6.976;2023-07-29T13:37:15;23.70;99.90
36384;DHT22;22418;51.210;6.976;2023-07-29T13:39:45;23.70;99.90
36384;DHT22;22418;51.210;6.976;2023-07-29T13:42:16;23.80;99.90
36384;DHT22;22418;51.210;6.976;2023-07-29T13:44:46;23.80;99.90
36384;DHT22;22418;51.210;6.976;2023-07-29T13:47:17;23.70;99.90
36384;DHT22;22418;51.210;6.976;2023-07-29T13:49:47;23.60;99.90
36384;DHT22;22418;51.210;6.976;2023-07-29T13:52:18;23.40;99.90
36384;DHT22;22418;51.210;6.976;2023-07-29T13:54:48;23.30;99.90
36384;DHT22;22418;51.210;6.976;2023-07-29T13:57:18;23.30;99.90
36384;DHT22;22418;51.210;6.976;2023-07-29T13:59:49;23.30;99.90
36384;DHT22;22418;51.210;6.976;2023-07-29T14:02:19;23.40;99.90
36384;DHT22;22418;51.210;6.976;2023-07-29T14:04:50;23.40;99.90
36384;DHT22;22418;51.210;6.976;2023-07-29T14:07:20;23.40;99.90
36384;DHT22;22418;51.210;6.976;2023-07-29T14:09:51;23.40;99.90
36384;DHT22;22418;51.210;6.976;2023-07-29T14:12:21;23.40;99.90
36384;DHT22;22418;51.210;6.976;2023-07-29T14:14:52;23.40;99.90
36384;DHT22;22418;51.210;6.976;2023-07-29T14:17:22;23.30;99.90
36384;DHT22;22418;51.210;6.976;2023-07-29T14:19:53;23.20;99.90
36384;DHT22;22418;51.210;6.976;2023-07-29T14:22:23;23.30;99.90
36384;DHT22;22418;51.210;6.976;2023-07-29T14:24:53;23.20;99.90
36384;DHT22;22418;51.210;6.976;2023-07-29T14:27:24;23.30;99.90
36384;DHT22;22418;51.210;6.976;2023-07-29T14:29:54;23.40;99.90
36384;DHT22;22418;51.210;6.976;2023-07-29T14:32:25;23.40;99.90
36384;DHT22;22418;51.210;6.976;2023-07-29T14:34:55;23.50;99.90
36384;DHT22;22418;51.210;6.976;2023-07-29T14:37:26;23.50;99.90
36384;DHT22;22418;51.210;6.976;2023-07-29T14:39:57;23.50;99.90
36384;DHT22;22418;51.210;6.976;2023-07-29T14:42:28;23.60;99.90
36384;DHT22;22418;51.210;6.976;2023-07-29T14:44:58;23.70;99.90
36384;DHT22;22418;51.210;6.976;2023-07-29T14:47:28;23.70;99.90
36384;DHT22;22418;51.210;6.976;2023-07-29T14:50:04;23.70;99.90
36384;DHT22;22418;51.210;6.976;2023-07-29T14:52:35;23.50;99.90
36384;DHT22;22418;51.210;6.976;2023-07-29T14:55:05;23.30;99.90
36384;DHT22;22418;51.210;6.976;2023-07-29T14:57:36;23.10;99.90
36384;DHT22;22418;51.210;6.976;2023-07-29T15:00:07;23.10;99.90
36384;DHT22;22418;51.210;6.976;2023-07-29T15:02:37;23.10;99.90
36384;DHT22;22418;51.210;6.976;2023-07-29T15:05:08;23.10;99.90
36384;DHT22;22418;51.210;6.976;2023-07-29T15:07:39;23.20;99.90
36384;DHT22;22418;51.210;6.976;2023-07-29T15:10:09;23.20;99.90
36384;DHT22;22418;51.210;6.976;2023-07-29T15:12:39;23.30;99.90
36384;DHT22;22418;51.210;6.976;2023-07-29T15:15:10;23.30;99.90
36384;DHT22;22418;51.210;6.976;2023-07-29T15:17:41;23.30;99.90
36384;DHT22;22418;51.210;6.976;2023-07-29T15:20:12;23.40;99.90
36384;DHT22;22418;51.210;6.976;2023-07-29T15:22:42;23.40;99.90
36384;DHT22;22418;51.210;6.976;2023-07-29T15:25:13;23.40;99.90
36384;DHT22;22418;51.210;6.976;2023-07-29T15:27:43;23.40;99.90
36384;DHT22;22418;51.210;6.976;2023-07-29T15:30:13;23.30;99.90
36384;DHT22;22418;51.210;6.976;2023-07-29T15:32:44;23.20;99.90
36384;DHT22;22418;51.210;6.976;2023-07-29T15:35:17;23.20;99.90
36384;DHT22;22418;51.210;6.976;2023-07-29T15:37:48;23.10;99.90
36384;DHT22;22418;51.210;6.976;2023-07-29T15:40:18;23.00;99.90
36384;DHT22;22418;51.210;6.976;2023-07-29T15:42:49;22.90;99.90
36384;DHT22;22418;51.210;6.976;2023-07-29T15:45:20;22.80;99.90
36384;DHT22;22418;51.210;6.976;2023-07-29T15:47:50;22.80;99.90
36384;DHT22;22418;51.210;6.976;2023-07-29T15:50:21;22.70;99.90
36384;DHT22;22418;51.210;6.976;2023-07-29T15:52:51;22.70;99.90
36384;DHT22;22418;51.210;6.976;2023-07-29T15:55:22;22.60;99.90
36384;DHT22;22418;51.210;6.976;2023-07-29T15:57:52;22.60;99.90
36384;DHT22;22418;51.210;6.976;2023-07-29T16:00:23;22.60;99.90
36384;DHT22;22418;51.210;6.976;2023-07-29T16:02:54;22.50;99.90
36384;DHT22;22418;51.210;6.976;2023-07-29T16:05:24;22.50;99.90
36384;DHT22;22418;51.210;6.976;2023-07-29T16:07:55;22.50;99.90